createdAt,value
2022-08-05T00:01:54.639Z,1.33
2022-08-05T00:04:21.766Z,1.30
2022-08-05T00:06:51.864Z,3.17
2022-08-05T00:09:19.551Z,3.50
2022-08-05T00:11:47.295Z,3.03
2022-08-05T00:14:17.194Z,4.00
2022-08-05T00:16:52.561Z,2.77
2022-08-05T00:19:24.858Z,6.30
2022-08-05T00:22:00.219Z,9.30
2022-08-05T00:24:31.094Z,3.23
2022-08-05T00:27:00.489Z,1.20
2022-08-05T00:29:37.753Z,2.27
2022-08-05T00:32:13.364Z,2.53
2022-08-05T00:35:04.788Z,1.43
2022-08-05T00:37:51.036Z,2.93
2022-08-05T00:40:27.733Z,3.30
2022-08-05T00:42:58.372Z,1.87
2022-08-05T00:45:39.027Z,1.40
2022-08-05T00:48:16.491Z,1.50
2022-08-05T00:50:45.989Z,2.40
2022-08-05T00:53:59.933Z,2.93
2022-08-05T00:56:03.336Z,1.33
2022-08-05T00:58:30.272Z,2.57
2022-08-05T01:00:57.583Z,2.23
2022-08-05T01:03:30.971Z,1.67
2022-08-05T01:06:00.642Z,1.83
2022-08-05T01:08:40.390Z,2.43
2022-08-05T01:11:33.609Z,2.50
2022-08-05T01:14:15.420Z,1.63
2022-08-05T01:16:57.007Z,1.80
2022-08-05T01:19:46.342Z,1.60
2022-08-05T01:22:28.025Z,1.57
2022-08-05T01:25:10.393Z,1.67
2022-08-05T01:28:08.886Z,2.60
2022-08-05T01:30:39.908Z,2.50
2022-08-05T01:33:22.141Z,2.07
2022-08-05T01:35:57.459Z,2.53
2022-08-05T01:38:29.097Z,1.83
2022-08-05T01:41:01.911Z,2.50
2022-08-05T01:43:30.622Z,2.80
2022-08-05T01:46:07.410Z,2.57
2022-08-05T01:48:49.445Z,2.67
2022-08-05T01:51:18.878Z,2.90
2022-08-05T01:53:57.886Z,1.80
2022-08-05T01:58:10.212Z,3.90
2022-08-05T01:59:28.017Z,2.73
2022-08-05T02:02:00.025Z,2.80
2022-08-05T02:04:28.839Z,3.07
2022-08-05T02:06:59.001Z,3.53
2022-08-05T02:09:26.684Z,4.10
2022-08-05T02:12:12.948Z,3.47
2022-08-05T02:15:17.326Z,2.10
2022-08-05T02:18:28.384Z,2.70
2022-08-05T02:21:14.989Z,1.97
2022-08-05T02:23:46.566Z,2.57
2022-08-05T02:26:22.148Z,2.97
2022-08-05T02:28:50.610Z,2.27
2022-08-05T02:31:26.876Z,3.20
2022-08-05T02:33:59.619Z,3.57
2022-08-05T02:36:31.606Z,3.03
2022-08-05T02:39:01.624Z,2.50
2022-08-05T02:41:43.296Z,2.47
2022-08-05T02:44:19.531Z,1.77
2022-08-05T02:46:58.360Z,1.87
2022-08-05T02:49:36.878Z,1.53
2022-08-05T02:52:29.666Z,2.23
2022-08-05T02:55:05.374Z,2.23
2022-08-05T02:58:10.337Z,1.50
2022-08-05T03:00:21.946Z,2.30
2022-08-05T03:02:49.717Z,4.23
2022-08-05T03:06:52.353Z,2.50
2022-08-05T03:08:08.583Z,2.00
2022-08-05T03:10:36.018Z,1.60
2022-08-05T03:13:12.281Z,1.63
2022-08-05T03:15:48.138Z,1.43
2022-08-05T03:18:18.874Z,1.83
2022-08-05T03:20:57.077Z,3.00
2022-08-05T03:23:28.269Z,2.50
2022-08-05T03:26:04.366Z,1.13
2022-08-05T03:28:46.659Z,1.23
2022-08-05T03:31:18.234Z,1.47
2022-08-05T03:34:01.889Z,1.50
2022-08-05T03:36:30.171Z,2.17
2022-08-05T03:38:58.223Z,2.67
2022-08-05T03:41:25.332Z,1.77
2022-08-05T03:44:10.288Z,1.40
2022-08-05T03:46:38.865Z,2.07
2022-08-05T03:49:06.552Z,1.37
2022-08-05T03:52:50.547Z,1.43
2022-08-05T03:55:00.365Z,1.87
2022-08-05T03:57:43.653Z,1.67
2022-08-05T04:00:16.418Z,1.73
2022-08-05T04:02:52.002Z,1.57
2022-08-05T04:05:34.652Z,0.90
2022-08-05T04:08:30.106Z,1.17
2022-08-05T04:10:55.616Z,1.03
2022-08-05T04:13:23.502Z,1.63
2022-08-05T04:15:52.651Z,1.10
2022-08-05T04:18:32.221Z,1.00
2022-08-05T04:21:02.113Z,1.10
2022-08-05T04:24:05.344Z,1.77
2022-08-05T04:26:18.974Z,1.60
2022-08-05T04:28:50.884Z,1.37
2022-08-05T04:31:20.442Z,1.83
2022-08-05T04:34:17.302Z,1.70
2022-08-05T04:36:44.940Z,2.77
2022-08-05T04:39:18.269Z,1.80
2022-08-05T04:41:46.128Z,1.57
2022-08-05T04:44:21.332Z,1.90
2022-08-05T04:46:58.668Z,1.23
2022-08-05T04:49:39.260Z,1.97
2022-08-05T04:52:14.065Z,2.07
2022-08-05T04:54:42.272Z,1.73
2022-08-05T04:57:09.185Z,1.90
2022-08-05T04:59:39.168Z,2.47
2022-08-05T05:02:37.254Z,3.03
2022-08-05T05:05:02.112Z,3.27
2022-08-05T05:07:32.754Z,2.60
2022-08-05T05:10:05.410Z,4.60
2022-08-05T05:12:33.588Z,3.40
2022-08-05T05:15:04.935Z,3.27
2022-08-05T05:17:57.159Z,4.20
2022-08-05T05:20:28.131Z,2.37
2022-08-05T05:22:56.911Z,3.57
2022-08-05T05:25:32.629Z,3.47
2022-08-05T05:27:59.911Z,3.70
2022-08-05T05:30:31.305Z,3.53
2022-08-05T05:33:09.321Z,2.80
2022-08-05T05:35:47.646Z,3.20
2022-08-05T05:38:22.736Z,2.43
2022-08-05T05:40:57.392Z,4.77
2022-08-05T05:43:54.645Z,1.60
2022-08-05T05:46:17.203Z,1.83
2022-08-05T05:48:47.920Z,2.20
2022-08-05T05:51:25.965Z,3.13
2022-08-05T05:53:58.524Z,2.73
2022-08-05T05:56:33.325Z,2.63
2022-08-05T05:59:05.874Z,2.83
2022-08-05T06:01:38.251Z,2.30
2022-08-05T06:04:12.628Z,1.93
2022-08-05T06:06:42.722Z,2.20
2022-08-05T06:09:17.452Z,3.80
2022-08-05T06:12:02.140Z,2.90
2022-08-05T06:14:30.989Z,4.90
2022-08-05T06:16:58.570Z,2.63
2022-08-05T06:19:34.759Z,2.30
2022-08-05T06:22:04.247Z,7.47
2022-08-05T06:24:34.199Z,4.13
2022-08-05T06:27:02.367Z,3.73
2022-08-05T06:29:46.768Z,4.57
2022-08-05T06:32:26.412Z,3.20
2022-08-05T06:34:58.584Z,4.67
2022-08-05T06:37:57.746Z,5.27
2022-08-05T06:40:18.391Z,3.80
2022-08-05T06:42:52.126Z,4.00
2022-08-05T06:45:21.198Z,3.13
2022-08-05T06:48:44.067Z,3.17
2022-08-05T06:50:54.210Z,3.20
2022-08-05T06:53:27.825Z,1.73
2022-08-05T06:56:00.597Z,1.10
2022-08-05T06:58:34.754Z,2.70
2022-08-05T07:01:04.673Z,1.77
2022-08-05T07:03:33.223Z,2.17
2022-08-05T07:06:06.256Z,1.90
2022-08-05T07:08:47.628Z,2.73
2022-08-05T07:11:16.152Z,4.57
2022-08-05T07:14:01.950Z,3.47
2022-08-05T07:17:56.863Z,3.93
2022-08-05T07:22:28.662Z,3.20
2022-08-05T07:25:22.046Z,1.83
2022-08-05T07:27:58.502Z,2.73
2022-08-05T07:30:38.404Z,2.00
2022-08-05T07:33:10.405Z,5.10
2022-08-05T07:36:04.527Z,2.63
2022-08-05T07:38:33.357Z,1.40
2022-08-05T07:42:07.407Z,2.40
2022-08-05T07:43:57.090Z,3.57
2022-08-05T07:46:28.949Z,2.73
2022-08-05T07:49:02.569Z,1.97
2022-08-05T07:51:40.594Z,3.50
2022-08-05T07:54:26.556Z,5.30
2022-08-05T07:57:01.603Z,3.60
2022-08-05T07:59:42.047Z,4.07
2022-08-05T08:02:15.624Z,2.73
2022-08-05T08:04:48.348Z,3.17
2022-08-05T08:07:22.489Z,3.27
2022-08-05T08:09:52.105Z,5.10
2022-08-05T08:12:33.508Z,2.87
2022-08-05T08:15:14.122Z,2.93
2022-08-05T08:17:49.664Z,2.70
2022-08-05T08:20:59.921Z,2.70
2022-08-05T08:23:59.985Z,3.00
2022-08-05T08:26:00.145Z,6.20
2022-08-05T08:28:36.311Z,4.50
2022-08-05T08:31:09.677Z,3.37
2022-08-05T08:33:41.989Z,3.20
2022-08-05T08:36:38.404Z,4.10
2022-08-05T08:38:57.947Z,3.07
2022-08-05T08:41:50.764Z,1.93
2022-08-05T08:45:23.097Z,1.70
2022-08-05T08:47:21.820Z,4.03
2022-08-05T08:50:07.632Z,5.70
2022-08-05T08:52:54.264Z,5.70
2022-08-05T08:56:02.006Z,6.13
2022-08-05T08:58:12.889Z,5.00
2022-08-05T09:00:41.273Z,4.10
2022-08-05T09:03:09.761Z,4.20
2022-08-05T09:05:38.782Z,3.90
2022-08-05T09:08:27.445Z,8.40
2022-08-05T09:10:57.707Z,5.67
2022-08-05T09:13:24.855Z,7.20
2022-08-05T09:15:58.790Z,9.77
2022-08-05T09:18:26.178Z,7.40
2022-08-05T09:20:53.103Z,8.90
2022-08-05T09:23:23.458Z,6.70
2022-08-05T09:26:20.620Z,8.50
2022-08-05T09:28:49.387Z,9.60
2022-08-05T09:31:23.192Z,8.77
2022-08-05T09:34:11.595Z,7.17
2022-08-05T09:36:56.132Z,6.63
2022-08-05T09:39:41.228Z,6.90
2022-08-05T09:42:23.884Z,5.37
2022-08-05T09:44:57.421Z,4.77
2022-08-05T09:47:46.531Z,8.10
2022-08-05T09:50:38.759Z,4.47
2022-08-05T09:53:12.035Z,3.27
2022-08-05T09:55:57.169Z,7.93
2022-08-05T09:58:29.185Z,10.40
2022-08-05T10:01:13.549Z,6.00
2022-08-05T10:04:03.668Z,7.37
2022-08-05T10:06:31.887Z,7.23
2022-08-05T10:09:28.384Z,5.77
2022-08-05T10:12:30.039Z,3.93
2022-08-05T10:15:34.282Z,3.87
2022-08-05T10:18:09.097Z,5.27
2022-08-05T10:20:42.635Z,5.20
2022-08-05T10:23:55.436Z,4.97
2022-08-05T10:26:13.928Z,4.80
2022-08-05T10:28:42.642Z,4.60
2022-08-05T10:32:48.095Z,3.63
2022-08-05T10:34:00.468Z,2.70
2022-08-05T10:36:28.282Z,3.27
2022-08-05T10:39:05.256Z,2.90
2022-08-05T10:41:50.782Z,4.50
2022-08-05T10:44:20.236Z,4.10
2022-08-05T10:46:50.626Z,4.30
2022-08-05T10:49:27.132Z,3.33
2022-08-05T10:52:03.233Z,6.10
2022-08-05T10:54:56.144Z,4.83
2022-08-05T10:57:29.396Z,7.90
2022-08-05T11:00:23.201Z,4.53
2022-08-05T11:03:00.341Z,6.50
2022-08-05T11:06:04.386Z,4.83
2022-08-05T11:08:37.128Z,6.97
2022-08-05T11:11:44.684Z,6.83
2022-08-05T11:14:57.385Z,4.30
2022-08-05T11:18:00.451Z,6.10
2022-08-05T11:20:39.195Z,3.80
2022-08-05T11:23:33.297Z,5.33
2022-08-05T11:26:28.311Z,2.50
2022-08-05T11:29:11.798Z,4.07
2022-08-05T11:31:54.503Z,7.00
2022-08-05T11:34:51.393Z,7.60
2022-08-05T11:38:26.118Z,12.93
2022-08-05T11:41:15.471Z,9.40
2022-08-05T11:44:05.963Z,4.10
2022-08-05T11:46:58.217Z,4.83
2022-08-05T11:49:34.081Z,6.80
2022-08-05T11:52:01.894Z,10.67
2022-08-05T11:54:40.472Z,11.33
2022-08-05T11:57:24.273Z,8.27
2022-08-05T11:59:53.551Z,4.10
2022-08-05T12:02:33.030Z,6.47
2022-08-05T12:05:07.010Z,5.37
2022-08-05T12:08:03.226Z,7.97
2022-08-05T12:10:38.586Z,12.40
2022-08-05T12:13:47.318Z,6.27
2022-08-05T12:16:14.763Z,6.80
2022-08-05T12:18:49.465Z,5.67
2022-08-05T12:21:21.580Z,7.37
2022-08-05T12:24:04.982Z,6.90
2022-08-05T12:26:36.515Z,9.17
2022-08-05T12:29:09.858Z,8.90
2022-08-05T12:31:53.078Z,6.10
2022-08-05T12:34:24.005Z,5.87
2022-08-05T12:36:54.078Z,2.67
2022-08-05T12:39:22.116Z,4.83
2022-08-05T12:41:50.973Z,4.00
2022-08-05T12:44:33.902Z,5.93
2022-08-05T12:47:02.296Z,3.80
2022-08-05T12:50:03.698Z,6.63
2022-08-05T12:52:39.004Z,5.03
2022-08-05T12:55:25.559Z,4.10
2022-08-05T12:58:38.769Z,4.20
2022-08-05T13:02:01.797Z,5.20
2022-08-05T13:03:32.539Z,6.30
2022-08-05T13:06:01.262Z,9.50
2022-08-05T13:08:32.328Z,6.30
2022-08-05T13:11:01.340Z,2.93
2022-08-05T13:14:06.468Z,4.43
2022-08-05T13:16:17.289Z,6.67
2022-08-05T13:18:58.530Z,6.03
2022-08-05T13:21:28.506Z,8.60
2022-08-05T13:24:13.767Z,9.47
2022-08-05T13:26:54.785Z,9.53
2022-08-05T13:29:37.267Z,7.77
2022-08-05T13:32:05.630Z,9.57
2022-08-05T13:34:33.156Z,8.17
2022-08-05T13:37:00.644Z,12.30
2022-08-05T13:40:16.647Z,6.37
2022-08-05T13:42:24.202Z,4.90
2022-08-05T13:44:53.397Z,16.30
2022-08-05T13:47:34.832Z,9.57
2022-08-05T13:50:06.468Z,7.60
2022-08-05T13:52:39.827Z,15.50
2022-08-05T13:55:09.823Z,6.40
2022-08-05T13:57:51.440Z,10.53
2022-08-05T14:00:27.262Z,5.73
2022-08-05T14:02:56.911Z,6.50
2022-08-05T14:05:48.508Z,5.63
2022-08-05T14:08:21.242Z,5.53
2022-08-05T14:10:59.724Z,4.10
2022-08-05T14:13:35.061Z,4.10
2022-08-05T14:23:33.696Z,6.80
2022-08-05T14:26:04.943Z,6.53
2022-08-05T14:28:33.415Z,9.03
2022-08-05T14:31:01.769Z,7.73
2022-08-05T14:33:57.021Z,6.43
2022-08-05T14:36:21.313Z,10.20
2022-08-05T14:38:49.434Z,5.50
2022-08-05T14:41:17.817Z,4.73
2022-08-05T14:43:59.539Z,5.20
2022-08-05T14:46:31.404Z,6.40
2022-08-05T14:49:06.195Z,3.60
2022-08-05T14:51:38.863Z,3.40
2022-08-05T14:54:27.548Z,4.40
2022-08-05T14:56:57.212Z,5.30
2022-08-05T14:59:24.837Z,4.00
2022-08-05T15:01:53.770Z,6.63
2022-08-05T15:04:22.363Z,3.60
2022-08-05T15:06:52.970Z,7.23
2022-08-05T15:09:52.316Z,8.90
2022-08-05T15:12:08.903Z,6.77
2022-08-05T15:14:48.019Z,7.37
2022-08-05T15:17:47.675Z,5.53
2022-08-05T15:20:06.020Z,4.60
2022-08-05T15:22:33.147Z,8.60
2022-08-05T15:25:00.524Z,5.70
2022-08-05T15:27:38.956Z,4.70
2022-08-05T15:30:11.024Z,6.73
2022-08-05T15:32:41.202Z,7.37
2022-08-05T15:35:09.806Z,6.50
2022-08-05T15:38:34.952Z,7.30
2022-08-05T15:41:00.646Z,6.40
2022-08-05T15:43:20.308Z,6.30
2022-08-05T15:45:47.721Z,5.87
2022-08-05T15:48:26.872Z,6.30
2022-08-05T15:50:53.831Z,4.67
2022-08-05T15:53:23.333Z,7.03
2022-08-05T15:56:02.529Z,6.53
2022-08-05T15:58:36.842Z,7.37
2022-08-05T16:01:17.112Z,9.50
2022-08-05T16:03:50.862Z,9.43
2022-08-05T16:06:20.448Z,9.37
2022-08-05T16:08:51.091Z,8.87
2022-08-05T16:11:20.834Z,8.00
2022-08-05T16:14:06.742Z,7.10
2022-08-05T16:16:35.290Z,8.07
2022-08-05T16:19:02.497Z,5.00
2022-08-05T16:22:00.136Z,5.93
2022-08-05T16:24:41.507Z,5.53
2022-08-05T16:27:07.356Z,3.17
2022-08-05T16:29:37.454Z,4.53
2022-08-05T16:32:06.435Z,5.23
2022-08-05T16:34:33.641Z,7.17
2022-08-05T16:37:00.628Z,5.67
2022-08-05T16:40:04.614Z,5.10
2022-08-05T16:42:18.440Z,9.17
2022-08-05T16:44:54.236Z,6.03
2022-08-05T16:47:28.791Z,10.03
2022-08-05T16:50:05.654Z,5.63
2022-08-05T16:52:33.635Z,8.53
2022-08-05T16:55:00.910Z,8.77
2022-08-05T16:57:53.230Z,4.90
2022-08-05T17:00:33.943Z,4.87
2022-08-05T17:03:15.323Z,6.63
2022-08-05T17:05:53.966Z,4.50
2022-08-05T17:08:36.310Z,5.77
2022-08-05T17:11:17.215Z,2.30
2022-08-05T17:13:45.451Z,2.63
2022-08-05T17:16:29.653Z,3.03
2022-08-05T17:19:00.779Z,3.70
2022-08-05T17:21:35.633Z,2.77
2022-08-05T17:24:30.234Z,3.93
2022-08-05T17:26:57.661Z,2.67
2022-08-05T17:29:34.064Z,2.27
2022-08-05T17:32:11.355Z,2.33
2022-08-05T17:34:39.755Z,3.77
2022-08-05T17:37:29.443Z,4.50
2022-08-05T17:39:55.842Z,3.20
2022-08-05T17:42:28.328Z,6.23
2022-08-05T17:44:56.901Z,13.73
2022-08-05T17:47:23.807Z,2.00
2022-08-05T17:50:03.615Z,1.53
2022-08-05T17:52:34.904Z,2.50
2022-08-05T17:55:21.485Z,3.60
2022-08-05T17:57:50.294Z,2.73
2022-08-05T18:00:18.538Z,2.23
2022-08-05T18:02:47.255Z,4.57
2022-08-05T18:05:17.481Z,2.30
2022-08-05T18:07:44.802Z,3.57
2022-08-05T18:10:14.055Z,3.77
2022-08-05T18:12:49.280Z,4.23
2022-08-05T18:15:16.236Z,3.90
2022-08-05T18:18:00.751Z,3.73
2022-08-05T18:20:31.602Z,3.57
2022-08-05T18:23:08.986Z,3.40
2022-08-05T18:25:45.403Z,6.17
2022-08-05T18:28:17.549Z,6.17
2022-08-05T18:30:45.867Z,2.77
2022-08-05T18:33:22.558Z,6.13
2022-08-05T18:36:03.711Z,4.40
2022-08-05T18:38:36.185Z,5.07
2022-08-05T18:41:58.283Z,10.53
2022-08-05T18:43:52.664Z,3.37
2022-08-05T18:46:20.694Z,2.70
2022-08-05T18:48:52.296Z,2.33
2022-08-05T18:52:05.358Z,4.40
2022-08-05T18:54:31.684Z,4.60
2022-08-05T18:57:02.428Z,4.93
2022-08-05T18:59:43.652Z,4.00
2022-08-05T19:02:26.754Z,3.80
2022-08-05T19:05:02.432Z,2.10
2022-08-05T19:07:46.197Z,5.07
2022-08-05T19:10:28.063Z,4.30
2022-08-05T19:12:56.666Z,3.97
2022-08-05T19:15:57.511Z,5.20
2022-08-05T19:18:13.561Z,3.93
2022-08-05T19:20:53.701Z,4.13
2022-08-05T19:24:03.642Z,3.07
2022-08-05T19:26:09.138Z,2.30
2022-08-05T19:28:41.853Z,3.23
2022-08-05T19:31:12.930Z,4.40
2022-08-05T19:33:48.722Z,4.73
2022-08-05T19:36:29.273Z,3.93
2022-08-05T19:39:00.866Z,4.20
2022-08-05T19:41:58.250Z,2.03
2022-08-05T19:44:18.531Z,2.40
2022-08-05T19:46:45.881Z,4.40
2022-08-05T19:49:17.215Z,2.70
2022-08-05T19:52:08.885Z,2.77
2022-08-05T19:54:34.843Z,4.60
2022-08-05T19:57:09.476Z,3.00
2022-08-05T19:59:56.657Z,2.40
2022-08-05T20:02:27.125Z,2.50
2022-08-05T20:04:58.671Z,2.27
2022-08-05T20:07:45.687Z,2.10
2022-08-05T20:10:16.427Z,3.00
2022-08-05T20:12:47.625Z,2.63
2022-08-05T20:15:47.796Z,1.33
2022-08-05T20:18:10.556Z,1.53
2022-08-05T20:20:55.074Z,1.00
2022-08-05T20:23:44.502Z,1.27
2022-08-05T20:26:16.097Z,1.67
2022-08-05T20:28:48.566Z,2.50
2022-08-05T20:31:17.001Z,2.60
2022-08-05T20:33:45.072Z,2.60
2022-08-05T20:36:19.727Z,2.40
2022-08-05T20:38:54.369Z,3.40
2022-08-05T20:41:43.805Z,4.03
2022-08-05T20:44:18.531Z,5.30
2022-08-05T20:46:57.754Z,3.57
2022-08-05T20:49:26.148Z,3.33
2022-08-05T20:51:55.248Z,4.23
2022-08-05T20:54:25.198Z,4.97
2022-08-05T20:56:52.968Z,3.10
2022-08-05T20:59:26.427Z,3.20
2022-08-05T21:01:57.261Z,1.93
2022-08-05T21:04:27.014Z,3.70
2022-08-05T21:06:55.035Z,1.83
2022-08-05T21:09:23.136Z,2.57
2022-08-05T21:12:06.952Z,3.00
2022-08-05T21:14:39.659Z,4.17
2022-08-05T21:17:06.861Z,4.93
2022-08-05T21:19:46.694Z,3.63
2022-08-05T21:22:21.831Z,2.80
2022-08-05T21:24:52.732Z,3.30
2022-08-05T21:27:25.560Z,2.10
2022-08-05T21:29:58.224Z,3.60
2022-08-05T21:32:29.266Z,3.60
2022-08-05T21:35:08.481Z,1.80
2022-08-05T21:37:52.635Z,1.37
2022-08-05T21:40:24.340Z,2.70
2022-08-05T21:42:53.000Z,3.57
2022-08-05T21:45:26.550Z,2.17
2022-08-05T21:48:11.034Z,3.70
2022-08-05T21:50:41.681Z,3.63
2022-08-05T21:53:20.163Z,1.30
2022-08-05T21:56:05.543Z,2.03
2022-08-05T21:58:34.150Z,2.33
2022-08-05T22:01:06.927Z,3.83
2022-08-05T22:03:51.969Z,2.17
2022-08-05T22:06:22.331Z,2.77
2022-08-05T22:08:52.102Z,2.60
2022-08-05T22:11:35.372Z,3.43
2022-08-05T22:14:18.238Z,6.70
2022-08-05T22:16:53.043Z,4.13
2022-08-05T22:20:02.801Z,6.60
2022-08-05T22:22:11.867Z,8.20
2022-08-05T22:24:57.641Z,10.23
2022-08-05T22:28:08.048Z,4.87
2022-08-05T22:30:35.097Z,8.90
2022-08-05T22:33:15.484Z,5.67
2022-08-05T22:35:48.718Z,4.73
2022-08-05T22:38:17.150Z,6.03
2022-08-05T22:40:49.463Z,3.93
2022-08-05T22:43:36.305Z,4.30
2022-08-05T22:46:09.059Z,2.57
2022-08-05T22:48:40.569Z,2.50
2022-08-05T22:51:08.149Z,5.23
2022-08-05T22:53:50.888Z,6.07
2022-08-05T22:56:30.272Z,10.60
2022-08-05T22:58:59.846Z,5.80
2022-08-05T23:02:04.688Z,7.33
2022-08-05T23:04:16.690Z,4.90
2022-08-05T23:06:43.679Z,3.90
2022-08-05T23:09:26.988Z,2.70
2022-08-05T23:11:59.741Z,5.10
2022-08-05T23:14:32.224Z,3.20
2022-08-05T23:17:24.073Z,3.43
2022-08-05T23:20:01.058Z,3.47
2022-08-05T23:22:29.650Z,2.77
2022-08-05T23:24:57.864Z,3.13
2022-08-05T23:27:28.888Z,2.80
2022-08-05T23:29:58.639Z,4.57
2022-08-05T23:32:27.025Z,4.83
2022-08-05T23:34:54.306Z,4.30
2022-08-05T23:37:21.246Z,3.07
2022-08-05T23:39:54.349Z,3.23
2022-08-05T23:42:29.034Z,2.50
2022-08-05T23:44:57.332Z,2.70
2022-08-05T23:47:25.306Z,3.03
2022-08-05T23:49:55.661Z,3.93
2022-08-05T23:52:26.944Z,3.80
2022-08-05T23:54:56.711Z,7.00
2022-08-05T23:57:24.541Z,4.93
